Nave Celeste — VRZH4 — position and weather

sailwx.info

Track history (hours):
 
Tides and Currents Weather Stations Pressure Air Temp Water Temp Dewpoint Dewpoint Depression Visibility Wind Speed Wind Dir Waves Ship Positions

Nave Celeste

Last reported at 2018-Jan-05 06:02 UTC. Time now 2018-Jan-21 20:45 UTC.
Position N 01°24' E 103°12'.
Warning: this ship's position is 16 days out of date.

Length 332 m; draft 11 m.

Type: Tanker. MMSI: 477974000.

Date/timePositionNaut miles runAvg speedWind from/ knotsBaromVisibWave heightAir tempDewpointWater temp
2018-Jan-05 06:02N 01°24' E 103°12'110.2
2018-Jan-05 05:55N 01°24' E 103°13'7 9.9
2018-Jan-05 05:11N 01°19' E 103°18'210.0
2018-Jan-05 04:59N 01°18' E 103°20'5 9.9
2018-Jan-05 04:28N 01°15' E 103°24'5 9.9
2018-Jan-05 04:00N 01°13' E 103°28'510.6
2018-Jan-05 03:30N 01°12' E 103°33'510.7
2018-Jan-05 03:00N 01°11' E 103°39'510.0
2018-Jan-05 02:31N 01°09' E 103°43'5 9.3
2018-Jan-05 02:01N 01°10' E 103°47'511.0
2018-Jan-05 01:31N 01°12' E 103°52'4 8.2
2018-Jan-05 00:59N 01°15' E 103°56'1 2.3
2018-Jan-05 00:30N 01°15' E 103°55'0 0.0
2018-Jan-04 23:59N 01°15' E 103°55'0 0.0
2018-Jan-04 23:30N 01°15' E 103°55'0 0.0
2018-Jan-04 22:42N 01°15' E 103°55'0 0.0
2018-Jan-04 22:18N 01°15' E 103°55'0 0.0
2018-Jan-04 21:57N 01°15' E 103°55'0 0.1
2018-Jan-04 21:04N 01°15' E 103°55'0 0.1
2018-Jan-04 20:52N 01°15' E 103°55'0 0.1
2018-Jan-04 20:25N 01°15' E 103°55'0 0.0
2018-Jan-04 19:25N 01°15' E 103°55'0 0.0
2018-Jan-04 18:28N 01°15' E 103°55'0 0.0
2018-Jan-04 17:58N 01°15' E 103°55'0 0.1
2018-Jan-04 17:28N 01°15' E 103°55'0 0.0
2018-Jan-04 16:58N 01°15' E 103°55'0 0.0
2018-Jan-04 16:28N 01°15' E 103°55'0 0.1
2018-Jan-04 15:22N 01°15' E 103°55'0 0.4
2018-Jan-04 14:52N 01°15' E 103°55'0 0.3
2018-Jan-04 14:04N 01°15' E 103°55'0 0.0
2018-Jan-04 13:58N 01°15' E 103°55'0 0.1
2018-Jan-04 13:31N 01°15' E 103°55'0 0.0
2018-Jan-04 12:58N 01°15' E 103°55'0 0.1
2018-Jan-04 12:25N 01°15' E 103°55'0 0.1
2018-Jan-04 11:58N 01°15' E 103°55'0 0.0
2018-Jan-04 11:19N 01°15' E 103°55'0 0.2
2018-Jan-04 11:01N 01°15' E 103°55'0 0.0
2018-Jan-04 10:22N 01°15' E 103°55'0 0.0
2018-Jan-04 09:49N 01°15' E 103°55'0 0.0
2018-Jan-04 09:16N 01°15' E 103°55'0 0.0
2018-Jan-04 08:55N 01°15' E 103°55'0 0.0
2018-Jan-04 08:31N 01°15' E 103°55'0 0.0
2018-Jan-04 07:52N 01°15' E 103°55'0 0.1
2018-Jan-04 07:19N 01°15' E 103°55'0 0.3
2018-Jan-04 06:55N 01°15' E 103°55'0 0.2
2018-Jan-04 05:22N 01°15' E 103°55'0 0.1
2018-Jan-04 04:01N 01°15' E 103°55'0 0.0
2018-Jan-04 03:52N 01°15' E 103°55'0 0.0
2018-Jan-04 03:28N 01°15' E 103°55'0 0.0
2018-Jan-04 02:31N 01°15' E 103°55'0 0.0
2018-Jan-04 02:00N 01°15' E 103°55'0 0.9
2018-Jan-04 01:30N 01°15' E 103°54'2 3.6
2018-Jan-04 00:59N 01°15' E 103°56'2 3.9
2018-Jan-04 00:29N 01°15' E 103°58'1 2.7
2018-Jan-03 23:59N 01°16' E 103°59'3 5.9
2018-Jan-03 23:30N 01°16' E 104°02'18 7.4
2018-Jan-03 21:01N 01°20' E 104°20'  
2017-Dec-28 08:02N 21°60' E 121°08'1 6.5
2017-Dec-28 07:50N 22°01' E 121°09'3 7.7
2017-Dec-28 07:30N 22°03' E 121°11'612.0
2017-Dec-28 07:00N 22°07' E 121°15'612.0
2017-Dec-28 06:29N 22°11' E 121°20'6 8.7
2017-Dec-28 05:48N 22°16' E 121°24'4 8.8
2017-Dec-28 05:24N 22°19' E 121°26'6 9.2
2017-Dec-28 04:47N 22°24' E 121°30'410.0
2017-Dec-28 04:24N 22°26' E 121°33'23 9.2
2017-Dec-28 01:55N 22°46' E 121°44'5 8.7
2017-Dec-28 01:17N 22°51' E 121°48'3 8.7
2017-Dec-28 01:00N 22°53' E 121°49'5 8.7
2017-Dec-28 00:29N 22°57' E 121°51'5 8.7
2017-Dec-27 23:51N 23°02' E 121°53'5 8.8
2017-Dec-27 23:17N 23°07' E 121°55'3 8.2
2017-Dec-27 22:57N 23°09' E 121°57'4 8.1
2017-Dec-27 22:30N 23°12' E 121°58'4 8.0
2017-Dec-27 21:59N 23°16' E 122°00'4 8.3
2017-Dec-27 21:29N 23°20' E 122°03'4 8.4
2017-Dec-27 20:57N 23°24' E 122°05'27 8.6
2017-Dec-27 17:46N 23°48' E 122°19'2 9.3
2017-Dec-27 17:30N 23°50' E 122°21'5 9.2
2017-Dec-27 17:00N 23°54' E 122°22'5 9.1
2017-Dec-27 16:30N 23°59' E 122°24'4 8.9
2017-Dec-27 16:00N 24°03' E 122°26'4 8.4
2017-Dec-27 15:30N 24°07' E 122°27'4 8.2
2017-Dec-27 15:00N 24°10' E 122°29'4 8.7
2017-Dec-27 14:30N 24°14' E 122°32'4 8.9
2017-Dec-27 14:00N 24°17' E 122°35'5 9.5
2017-Dec-27 13:30N 24°22' E 122°37'5 9.5
2017-Dec-27 13:00N 24°26' E 122°40'5 9.3
2017-Dec-27 12:30N 24°30' E 122°42'4 9.0
2017-Dec-27 12:00N 24°34' E 122°43'4 8.8
2017-Dec-27 11:30N 24°39' E 122°44'5 9.3
2017-Dec-27 11:00N 24°43' E 122°45'5 9.3
2017-Dec-27 10:30N 24°48' E 122°46'5 9.1
2017-Dec-27 10:00N 24°52' E 122°47'4 8.9
2017-Dec-27 09:30N 24°56' E 122°48'5 9.2
2017-Dec-27 09:00N 25°01' E 122°49'5 9.6
2017-Dec-27 08:30N 25°06' E 122°50'4 7.9
2017-Dec-27 08:00N 25°09' E 122°51'4 7.4
2017-Dec-27 07:30N 25°13' E 122°52'4 7.6
2017-Dec-27 07:00N 25°17' E 122°52'7 9.8
2017-Dec-27 06:20N 25°23' E 122°53'413.2
2017-Dec-27 06:00N 25°28' E 122°54'  
Track history (hours):
 
Tides and Currents Weather Stations Pressure Air Temp Water Temp Dewpoint Dewpoint Depression Visibility Wind Speed Wind Dir Waves Ship Positions

Nave Celeste

Last reported at 2018-Jan-05 06:02 UTC. Time now 2018-Jan-21 20:45 UTC.
Position N 01°24' E 103°12'.
Warning: this ship's position is 16 days out of date.

Length 332 m; draft 11 m.

Type: Tanker. MMSI: 477974000.

Date/timePositionNaut miles runAvg speedWind from/ knotsBaromVisibWave heightAir tempDewpointWater temp
2018-Jan-05 06:02N 01°24' E 103°12'110.2
2018-Jan-05 05:55N 01°24' E 103°13'7 9.9
2018-Jan-05 05:11N 01°19' E 103°18'210.0
2018-Jan-05 04:59N 01°18' E 103°20'5 9.9
2018-Jan-05 04:28N 01°15' E 103°24'5 9.9
2018-Jan-05 04:00N 01°13' E 103°28'510.6
2018-Jan-05 03:30N 01°12' E 103°33'510.7
2018-Jan-05 03:00N 01°11' E 103°39'510.0
2018-Jan-05 02:31N 01°09' E 103°43'5 9.3
2018-Jan-05 02:01N 01°10' E 103°47'511.0
2018-Jan-05 01:31N 01°12' E 103°52'4 8.2
2018-Jan-05 00:59N 01°15' E 103°56'1 2.3
2018-Jan-05 00:30N 01°15' E 103°55'0 0.0
2018-Jan-04 23:59N 01°15' E 103°55'0 0.0
2018-Jan-04 23:30N 01°15' E 103°55'0 0.0
2018-Jan-04 22:42N 01°15' E 103°55'0 0.0
2018-Jan-04 22:18N 01°15' E 103°55'0 0.0
2018-Jan-04 21:57N 01°15' E 103°55'0 0.1
2018-Jan-04 21:04N 01°15' E 103°55'0 0.1
2018-Jan-04 20:52N 01°15' E 103°55'0 0.1
2018-Jan-04 20:25N 01°15' E 103°55'0 0.0
2018-Jan-04 19:25N 01°15' E 103°55'0 0.0
2018-Jan-04 18:28N 01°15' E 103°55'0 0.0
2018-Jan-04 17:58N 01°15' E 103°55'0 0.1
2018-Jan-04 17:28N 01°15' E 103°55'0 0.0
2018-Jan-04 16:58N 01°15' E 103°55'0 0.0
2018-Jan-04 16:28N 01°15' E 103°55'0 0.1
2018-Jan-04 15:22N 01°15' E 103°55'0 0.4
2018-Jan-04 14:52N 01°15' E 103°55'0 0.3
2018-Jan-04 14:04N 01°15' E 103°55'0 0.0
2018-Jan-04 13:58N 01°15' E 103°55'0 0.1
2018-Jan-04 13:31N 01°15' E 103°55'0 0.0
2018-Jan-04 12:58N 01°15' E 103°55'0 0.1
2018-Jan-04 12:25N 01°15' E 103°55'0 0.1
2018-Jan-04 11:58N 01°15' E 103°55'0 0.0
2018-Jan-04 11:19N 01°15' E 103°55'0 0.2
2018-Jan-04 11:01N 01°15' E 103°55'0 0.0
2018-Jan-04 10:22N 01°15' E 103°55'0 0.0
2018-Jan-04 09:49N 01°15' E 103°55'0 0.0
2018-Jan-04 09:16N 01°15' E 103°55'0 0.0
2018-Jan-04 08:55N 01°15' E 103°55'0 0.0
2018-Jan-04 08:31N 01°15' E 103°55'0 0.0
2018-Jan-04 07:52N 01°15' E 103°55'0 0.1
2018-Jan-04 07:19N 01°15' E 103°55'0 0.3
2018-Jan-04 06:55N 01°15' E 103°55'0 0.2
2018-Jan-04 05:22N 01°15' E 103°55'0 0.1
2018-Jan-04 04:01N 01°15' E 103°55'0 0.0
2018-Jan-04 03:52N 01°15' E 103°55'0 0.0
2018-Jan-04 03:28N 01°15' E 103°55'0 0.0
2018-Jan-04 02:31N 01°15' E 103°55'0 0.0
2018-Jan-04 02:00N 01°15' E 103°55'0 0.9
2018-Jan-04 01:30N 01°15' E 103°54'2 3.6
2018-Jan-04 00:59N 01°15' E 103°56'2 3.9
2018-Jan-04 00:29N 01°15' E 103°58'1 2.7
2018-Jan-03 23:59N 01°16' E 103°59'3 5.9
2018-Jan-03 23:30N 01°16' E 104°02'18 7.4
2018-Jan-03 21:01N 01°20' E 104°20'  
2017-Dec-28 08:02N 21°60' E 121°08'1 6.5
2017-Dec-28 07:50N 22°01' E 121°09'3 7.7
2017-Dec-28 07:30N 22°03' E 121°11'612.0
2017-Dec-28 07:00N 22°07' E 121°15'612.0
2017-Dec-28 06:29N 22°11' E 121°20'6 8.7
2017-Dec-28 05:48N 22°16' E 121°24'4 8.8
2017-Dec-28 05:24N 22°19' E 121°26'6 9.2
2017-Dec-28 04:47N 22°24' E 121°30'410.0
2017-Dec-28 04:24N 22°26' E 121°33'23 9.2
2017-Dec-28 01:55N 22°46' E 121°44'5 8.7
2017-Dec-28 01:17N 22°51' E 121°48'3 8.7
2017-Dec-28 01:00N 22°53' E 121°49'5 8.7
2017-Dec-28 00:29N 22°57' E 121°51'5 8.7
2017-Dec-27 23:51N 23°02' E 121°53'5 8.8
2017-Dec-27 23:17N 23°07' E 121°55'3 8.2
2017-Dec-27 22:57N 23°09' E 121°57'4 8.1
2017-Dec-27 22:30N 23°12' E 121°58'4 8.0
2017-Dec-27 21:59N 23°16' E 122°00'4 8.3
2017-Dec-27 21:29N 23°20' E 122°03'4 8.4
2017-Dec-27 20:57N 23°24' E 122°05'27 8.6
2017-Dec-27 17:46N 23°48' E 122°19'2 9.3
2017-Dec-27 17:30N 23°50' E 122°21'5 9.2
2017-Dec-27 17:00N 23°54' E 122°22'5 9.1
2017-Dec-27 16:30N 23°59' E 122°24'4 8.9
2017-Dec-27 16:00N 24°03' E 122°26'4 8.4
2017-Dec-27 15:30N 24°07' E 122°27'4 8.2
2017-Dec-27 15:00N 24°10' E 122°29'4 8.7
2017-Dec-27 14:30N 24°14' E 122°32'4 8.9
2017-Dec-27 14:00N 24°17' E 122°35'5 9.5
2017-Dec-27 13:30N 24°22' E 122°37'5 9.5
2017-Dec-27 13:00N 24°26' E 122°40'5 9.3
2017-Dec-27 12:30N 24°30' E 122°42'4 9.0
2017-Dec-27 12:00N 24°34' E 122°43'4 8.8
2017-Dec-27 11:30N 24°39' E 122°44'5 9.3
2017-Dec-27 11:00N 24°43' E 122°45'5 9.3
2017-Dec-27 10:30N 24°48' E 122°46'5 9.1
2017-Dec-27 10:00N 24°52' E 122°47'4 8.9
2017-Dec-27 09:30N 24°56' E 122°48'5 9.2
2017-Dec-27 09:00N 25°01' E 122°49'5 9.6
2017-Dec-27 08:30N 25°06' E 122°50'4 7.9
2017-Dec-27 08:00N 25°09' E 122°51'4 7.4
2017-Dec-27 07:30N 25°13' E 122°52'4 7.6
2017-Dec-27 07:00N 25°17' E 122°52'7 9.8
2017-Dec-27 06:20N 25°23' E 122°53'413.2
2017-Dec-27 06:00N 25°28' E 122°54'  

Dump ship's entire track history